Time;durP1;ratioP1;P1;durP2;ratioP2;P2;SDS_P1;SDS_P2;PMS_P1;PMS_P2;Temp;Humidity;BMP_temperature;BMP_pressure;BME280_temperature;BME280_humidity;BME280_pressure;Samples;Min_cycle;Max_cycle;Signal;HPM_P1;HPM_P2
2022/07/24 00:01:38;;;;;;;4.75;2.17;;;19.20;73.90;;;;;;4993909;28;20101;-68
2022/07/24 00:04:04;;;;;;;3.97;2.00;;;19.10;73.90;;;;;;4993506;28;20048;-68
2022/07/24 00:06:30;;;;;;;4.00;2.47;;;19.10;74.20;;;;;;4992302;28;20466;-68
2022/07/24 00:08:57;;;;;;;6.18;3.08;;;19.10;74.60;;;;;;4992750;28;20042;-67
2022/07/24 00:11:22;;;;;;;5.35;3.72;;;19.00;74.50;;;;;;4992712;28;20022;-68
2022/07/24 00:13:48;;;;;;;4.57;3.15;;;19.00;74.30;;;;;;4993596;28;20056;-67
2022/07/24 00:16:14;;;;;;;5.60;3.30;;;19.00;75.00;;;;;;4993184;28;20113;-67
2022/07/24 00:18:40;;;;;;;7.72;3.70;;;19.10;75.20;;;;;;4975528;28;20022;-67
2022/07/24 00:21:05;;;;;;;7.63;3.85;;;19.10;75.20;;;;;;4992677;28;20038;-67
2022/07/24 00:23:31;;;;;;;4.60;2.95;;;19.10;75.40;;;;;;4993346;28;20133;-67
2022/07/24 00:25:57;;;;;;;5.50;2.80;;;19.10;75.90;;;;;;4991557;28;20027;-67
2022/07/24 00:28:23;;;;;;;3.03;2.13;;;19.10;75.80;;;;;;4993000;28;20039;-67
2022/07/24 00:30:48;;;;;;;4.30;2.70;;;19.10;76.00;;;;;;4992436;28;20433;-67
2022/07/24 00:33:14;;;;;;;4.65;2.10;;;19.10;76.10;;;;;;4992898;28;20041;-67
2022/07/24 00:35:40;;;;;;;4.15;2.00;;;19.20;76.10;;;;;;4992910;28;20022;-67
2022/07/24 00:38:05;;;;;;;4.13;2.40;;;19.10;76.10;;;;;;4991956;28;20046;-68
2022/07/24 00:40:31;;;;;;;4.03;1.80;;;19.10;76.20;;;;;;4992231;28;20034;-67
2022/07/24 00:42:57;;;;;;;2.67;1.70;;;19.10;76.20;;;;;;4993137;28;20026;-67
2022/07/24 00:45:24;;;;;;;2.42;1.70;;;19.10;76.30;;;;;;4975912;28;20363;-67
2022/07/24 00:47:50;;;;;;;3.08;1.90;;;19.10;76.50;;;;;;4985207;28;20039;-67
2022/07/24 00:50:16;;;;;;;5.90;2.10;;;19.10;76.50;;;;;;4989621;28;20077;-67
2022/07/24 00:52:43;;;;;;;2.83;1.60;;;19.10;76.10;;;;;;4992285;28;20026;-67
2022/07/24 00:55:10;;;;;;;5.22;1.67;;;19.00;76.30;;;;;;4992609;28;20030;-67
2022/07/24 00:57:36;;;;;;;4.07;1.70;;;19.00;76.60;;;;;;4991344;28;20026;-67
2022/07/24 01:00:06;;;;;;;2.95;1.67;;;19.00;77.40;;;;;;4992605;28;20030;-67
2022/07/24 01:02:31;;;;;;;3.58;2.10;;;19.00;77.30;;;;;;4991634;28;20034;-68
2022/07/24 01:04:57;;;;;;;3.47;1.45;;;19.00;77.20;;;;;;4991139;28;20113;-68
2022/07/24 01:07:23;;;;;;;4.43;1.60;;;19.00;77.00;;;;;;4990235;28;20061;-68
2022/07/24 01:09:49;;;;;;;2.88;1.67;;;18.90;77.10;;;;;;4974574;28;20049;-68
2022/07/24 01:12:15;;;;;;;3.75;1.60;;;18.90;77.70;;;;;;4991991;28;20034;-68
2022/07/24 01:14:41;;;;;;;2.33;1.60;;;18.90;78.10;;;;;;4992295;28;20254;-67
2022/07/24 01:17:07;;;;;;;4.18;2.15;;;18.90;78.00;;;;;;4990736;28;20109;-68
2022/07/24 01:19:33;;;;;;;4.70;1.60;;;18.90;78.30;;;;;;4991610;28;20038;-67
2022/07/24 01:21:58;;;;;;;2.95;1.48;;;18.90;78.40;;;;;;4991780;28;20037;-68
2022/07/24 01:24:24;;;;;;;3.53;1.70;;;18.90;78.70;;;;;;4992781;28;20026;-68
2022/07/24 01:26:51;;;;;;;3.90;1.92;;;18.90;78.90;;;;;;4991492;28;20045;-68
2022/07/24 01:29:17;;;;;;;3.00;1.58;;;18.90;78.80;;;;;;4991636;28;20043;-67
2022/07/24 01:31:42;;;;;;;2.47;1.40;;;18.90;78.80;;;;;;4990733;28;20034;-67
2022/07/24 01:34:08;;;;;;;3.28;1.90;;;18.90;78.80;;;;;;4992248;28;20437;-67
2022/07/24 01:36:34;;;;;;;2.50;1.45;;;18.90;79.00;;;;;;4991402;28;20042;-67
2022/07/24 01:38:59;;;;;;;3.60;1.75;;;18.90;78.80;;;;;;4973738;28;20027;-67
2022/07/24 01:41:25;;;;;;;2.50;1.58;;;18.80;78.70;;;;;;4991481;28;20026;-67
2022/07/24 01:43:50;;;;;;;7.22;1.80;;;18.80;78.60;;;;;;4992218;28;20038;-67
2022/07/24 01:46:16;;;;;;;3.20;1.63;;;18.80;78.80;;;;;;4989325;28;20026;-67
2022/07/24 01:48:43;;;;;;;2.17;1.50;;;18.80;78.60;;;;;;4992479;28;20041;-68
2022/07/24 01:51:10;;;;;;;3.15;1.90;;;18.70;78.70;;;;;;4990353;28;20026;-68
2022/07/24 01:53:35;;;;;;;2.22;1.60;;;18.80;79.30;;;;;;4975265;28;20433;-68
2022/07/24 01:56:01;;;;;;;2.03;1.60;;;18.70;79.20;;;;;;4990365;28;20026;-68
2022/07/24 01:58:27;;;;;;;2.67;1.83;;;18.70;79.20;;;;;;4992937;28;20134;-68
2022/07/24 02:00:52;;;;;;;2.50;1.60;;;18.60;79.40;;;;;;4990480;28;20513;-67
2022/07/24 02:03:19;;;;;;;1.98;1.45;;;18.70;79.40;;;;;;4992336;28;20026;-68
2022/07/24 02:05:45;;;;;;;2.17;1.50;;;18.70;79.60;;;;;;4990502;28;20030;-68
2022/07/24 02:08:10;;;;;;;4.45;1.52;;;18.60;79.90;;;;;;4994013;28;20062;-68
2022/07/24 02:10:36;;;;;;;3.25;1.52;;;18.70;80.10;;;;;;4990281;28;20474;-68
2022/07/24 02:13:03;;;;;;;2.55;1.55;;;18.60;79.70;;;;;;4959820;28;20759;-68
2022/07/24 02:15:29;;;;;;;4.13;1.75;;;18.60;80.00;;;;;;4982239;28;20037;-69
2022/07/24 02:17:57;;;;;;;2.00;1.40;;;18.60;80.30;;;;;;4994772;28;20465;-68
2022/07/24 02:20:24;;;;;;;3.05;1.70;;;18.60;80.20;;;;;;4995027;28;20105;-68
2022/07/24 02:22:49;;;;;;;4.80;2.00;;;18.60;80.00;;;;;;4993494;28;20478;-68
2022/07/24 02:25:15;;;;;;;5.45;1.70;;;18.60;80.10;;;;;;4995827;28;20037;-68
2022/07/24 02:27:41;;;;;;;2.60;1.67;;;18.50;80.30;;;;;;4978071;28;20123;-68
2022/07/24 02:30:11;;;;;;;2.53;1.65;;;18.50;80.50;;;;;;4995351;28;20033;-68
2022/07/24 02:32:37;;;;;;;3.75;2.25;;;18.50;80.80;;;;;;4993692;28;20030;-68
2022/07/24 02:35:03;;;;;;;4.50;1.60;;;18.50;80.50;;;;;;4994583;28;20057;-68
2022/07/24 02:37:28;;;;;;;2.33;1.50;;;18.50;80.40;;;;;;4994059;28;20034;-68
2022/07/24 02:39:54;;;;;;;3.65;1.58;;;18.50;80.60;;;;;;4995521;28;20359;-68
2022/07/24 02:42:20;;;;;;;3.78;1.80;;;18.40;80.60;;;;;;4994154;28;20142;-68
2022/07/24 02:44:45;;;;;;;2.92;2.00;;;18.40;80.70;;;;;;4995263;28;20026;-68
2022/07/24 02:47:11;;;;;;;5.40;1.90;;;18.40;80.80;;;;;;4994237;28;20390;-68
2022/07/24 02:49:36;;;;;;;3.67;1.80;;;18.40;81.00;;;;;;4994732;28;20390;-68
2022/07/24 02:52:03;;;;;;;3.22;1.75;;;18.40;80.90;;;;;;4993330;28;20033;-69
2022/07/24 02:54:29;;;;;;;2.95;1.75;;;18.30;81.10;;;;;;4995338;28;20117;-68
2022/07/24 02:56:54;;;;;;;2.80;2.17;;;18.40;81.50;;;;;;4994469;28;20113;-68
2022/07/24 02:59:20;;;;;;;3.00;1.65;;;18.30;81.30;;;;;;4995355;28;20022;-68
2022/07/24 03:01:45;;;;;;;3.42;1.67;;;18.30;81.40;;;;;;4992939;28;20027;-68
2022/07/24 03:04:11;;;;;;;3.30;1.77;;;18.30;81.50;;;;;;4977958;28;20385;-68
2022/07/24 03:06:37;;;;;;;2.78;1.90;;;18.30;81.90;;;;;;4993631;28;20022;-68
2022/07/24 03:09:03;;;;;;;3.95;1.75;;;18.30;81.90;;;;;;4994692;28;20349;-68
2022/07/24 03:11:28;;;;;;;2.75;1.80;;;18.30;81.90;;;;;;4993392;28;20045;-68
2022/07/24 03:13:54;;;;;;;3.10;1.90;;;18.30;82.10;;;;;;4995102;28;20477;-67
2022/07/24 03:16:20;;;;;;;2.78;1.80;;;18.30;82.20;;;;;;4994026;28;20084;-69
2022/07/24 03:18:45;;;;;;;2.53;1.60;;;18.30;82.10;;;;;;4995050;28;20073;-67
2022/07/24 03:21:13;;;;;;;2.90;1.83;;;18.20;82.00;;;;;;4993304;28;20018;-67
2022/07/24 03:23:39;;;;;;;3.17;1.73;;;18.20;82.10;;;;;;4995146;28;20109;-68
2022/07/24 03:26:05;;;;;;;2.35;1.70;;;18.20;82.20;;;;;;4993717;28;20109;-68
2022/07/24 03:28:30;;;;;;;2.45;1.80;;;18.20;82.30;;;;;;4994620;28;20066;-69
2022/07/24 03:30:56;;;;;;;1.98;1.60;;;18.20;82.00;;;;;;4992984;28;20548;-68
2022/07/24 03:33:21;;;;;;;2.80;1.92;;;18.20;82.20;;;;;;4973855;28;20046;-69
2022/07/24 03:35:47;;;;;;;4.13;2.22;;;18.20;82.50;;;;;;4992581;28;20077;-69
2022/07/24 03:38:13;;;;;;;3.28;2.00;;;18.20;82.60;;;;;;4994683;28;20023;-69
2022/07/24 03:40:38;;;;;;;2.60;1.55;;;18.20;82.30;;;;;;4993204;28;20393;-69
2022/07/24 03:43:05;;;;;;;2.08;1.55;;;18.20;82.70;;;;;;4994352;28;20029;-68
2022/07/24 03:45:31;;;;;;;3.47;1.80;;;18.10;82.90;;;;;;4994130;28;20054;-69
2022/07/24 03:47:57;;;;;;;3.58;1.52;;;18.20;82.70;;;;;;4993488;28;20444;-69
2022/07/24 03:50:23;;;;;;;2.42;1.70;;;18.20;82.60;;;;;;4992941;28;20065;-68
2022/07/24 03:52:51;;;;;;;5.18;2.65;;;18.10;82.60;;;;;;4993006;28;20065;-69
2022/07/24 03:55:17;;;;;;;4.30;2.47;;;18.20;82.60;;;;;;4992996;28;20109;-68
2022/07/24 03:57:42;;;;;;;4.22;1.60;;;18.20;82.60;;;;;;4993403;28;20124;-68
2022/07/24 04:00:09;;;;;;;5.25;2.13;;;18.20;82.70;;;;;;4992947;28;20027;-68
2022/07/24 04:02:35;;;;;;;5.15;1.70;;;18.20;82.70;;;;;;4961822;28;20461;-69
2022/07/24 04:05:01;;;;;;;2.25;1.45;;;18.20;82.70;;;;;;4973237;28;20069;-68
2022/07/24 04:07:26;;;;;;;4.47;2.10;;;18.20;82.80;;;;;;4992426;28;20054;-68
2022/07/24 04:09:53;;;;;;;1.92;1.55;;;18.20;82.40;;;;;;5007914;28;20794;-68
2022/07/24 04:12:18;;;;;;;2.03;1.52;;;18.20;82.30;;;;;;4992052;28;20138;-69
2022/07/24 04:14:44;;;;;;;2.42;1.42;;;18.20;82.50;;;;;;4993877;28;20113;-69
2022/07/24 04:17:10;;;;;;;2.08;1.48;;;18.20;82.30;;;;;;4994381;28;20084;-68
2022/07/24 04:19:35;;;;;;;3.30;1.65;;;18.20;82.20;;;;;;4997470;28;20065;-68
2022/07/24 04:22:01;;;;;;;3.70;1.50;;;18.20;82.80;;;;;;4991651;28;20363;-68
2022/07/24 04:24:26;;;;;;;2.90;1.30;;;18.30;82.60;;;;;;4996450;28;20466;-70
2022/07/24 04:26:52;;;;;;;3.03;1.50;;;18.30;83.00;;;;;;4993916;28;20045;-69
2022/07/24 04:29:19;;;;;;;4.13;2.15;;;18.30;82.80;;;;;;4993904;28;20104;-69
2022/07/24 04:31:45;;;;;;;2.28;1.58;;;18.30;82.40;;;;;;4993787;28;20023;-69
2022/07/24 04:34:10;;;;;;;2.63;1.48;;;18.30;82.70;;;;;;4994930;28;20054;-69
2022/07/24 04:36:36;;;;;;;2.35;1.88;;;18.30;83.00;;;;;;4993951;28;20038;-69
2022/07/24 04:39:02;;;;;;;2.22;1.30;;;18.30;83.40;;;;;;4994165;28;20149;-69
2022/07/24 04:41:28;;;;;;;4.78;1.60;;;18.30;83.00;;;;;;4993456;28;20023;-68
2022/07/24 04:43:53;;;;;;;2.00;1.40;;;18.30;83.30;;;;;;4993739;28;20037;-68
2022/07/24 04:46:19;;;;;;;3.05;1.45;;;18.40;83.40;;;;;;4975162;28;20390;-71
2022/07/24 04:48:45;;;;;;;4.00;1.67;;;18.40;83.10;;;;;;4992074;28;20419;-70
2022/07/24 04:51:10;;;;;;;2.75;1.60;;;18.40;82.70;;;;;;4992020;28;20092;-70
2022/07/24 04:53:36;;;;;;;2.70;1.42;;;18.40;82.90;;;;;;4993292;28;20385;-71
2022/07/24 04:56:02;;;;;;;3.88;1.50;;;18.40;82.60;;;;;;4991456;28;20031;-71
2022/07/24 04:58:29;;;;;;;2.97;1.48;;;18.40;82.70;;;;;;4992350;28;20113;-71
2022/07/24 05:00:55;;;;;;;2.70;1.52;;;18.50;82.40;;;;;;4991403;28;20226;-71
2022/07/24 05:03:21;;;;;;;3.53;1.27;;;18.50;83.10;;;;;;4973063;28;20041;-71
2022/07/24 05:05:46;;;;;;;2.78;1.50;;;18.50;83.40;;;;;;4992009;28;20034;-71
2022/07/24 05:08:13;;;;;;;3.40;2.10;;;18.50;82.80;;;;;;4993160;28;20027;-70
2022/07/24 05:10:39;;;;;;;2.00;1.27;;;18.60;82.70;;;;;;4991889;28;20026;-70
2022/07/24 05:13:04;;;;;;;3.33;1.50;;;18.60;82.40;;;;;;4991595;28;20041;-71
2022/07/24 05:15:31;;;;;;;1.67;1.20;;;18.50;82.20;;;;;;4991857;28;20081;-68
2022/07/24 05:17:56;;;;;;;2.58;1.60;;;18.50;82.50;;;;;;4992420;28;20048;-68
2022/07/24 05:20:22;;;;;;;2.95;1.50;;;18.50;82.50;;;;;;4992524;28;20022;-68
2022/07/24 05:22:48;;;;;;;2.25;1.63;;;18.60;82.60;;;;;;4991001;28;20030;-68
2022/07/24 05:25:14;;;;;;;2.53;1.30;;;18.60;82.40;;;;;;4992478;28;20022;-68
2022/07/24 05:27:39;;;;;;;4.00;1.38;;;18.60;82.30;;;;;;4991731;28;20378;-68
2022/07/24 05:30:06;;;;;;;1.88;1.42;;;18.70;82.30;;;;;;4991604;28;20033;-68
2022/07/24 05:32:32;;;;;;;3.15;1.52;;;18.70;82.40;;;;;;4991456;28;20038;-68
2022/07/24 05:34:57;;;;;;;3.50;1.40;;;18.70;82.60;;;;;;4991978;28;20046;-68
2022/07/24 05:37:23;;;;;;;1.63;1.30;;;18.80;82.30;;;;;;4974256;28;20184;-68
2022/07/24 05:39:48;;;;;;;3.72;1.55;;;18.80;82.30;;;;;;4992005;28;20033;-69
2022/07/24 05:42:14;;;;;;;4.93;1.60;;;18.90;82.40;;;;;;4990146;28;20466;-68
2022/07/24 05:44:40;;;;;;;2.15;1.15;;;18.90;82.40;;;;;;4992369;28;20033;-68
2022/07/24 05:47:05;;;;;;;4.28;1.23;;;18.90;81.90;;;;;;4973663;28;20109;-69
2022/07/24 05:49:31;;;;;;;2.13;1.17;;;18.90;81.60;;;;;;4992239;28;20041;-69
2022/07/24 05:51:57;;;;;;;4.00;1.55;;;18.90;81.90;;;;;;4991118;28;20026;-68
2022/07/24 05:54:22;;;;;;;3.35;1.50;;;19.00;81.60;;;;;;4992253;28;20033;-68
2022/07/24 05:56:48;;;;;;;1.80;1.30;;;19.00;81.40;;;;;;4991988;28;20084;-67
2022/07/24 05:59:14;;;;;;;2.42;1.48;;;19.00;81.50;;;;;;4991451;28;20089;-68
2022/07/24 06:01:41;;;;;;;1.90;1.40;;;18.90;81.30;;;;;;4988160;28;20495;-68
2022/07/24 06:04:07;;;;;;;2.78;1.30;;;19.00;81.30;;;;;;4973955;28;20049;-68
2022/07/24 06:06:32;;;;;;;3.17;1.23;;;19.00;81.60;;;;;;4990031;28;20027;-68
2022/07/24 06:08:58;;;;;;;3.17;1.65;;;19.00;81.60;;;;;;4991103;28;20073;-68
2022/07/24 06:11:23;;;;;;;2.28;1.65;;;19.00;81.30;;;;;;4990589;28;20476;-68
2022/07/24 06:13:49;;;;;;;2.85;1.52;;;19.00;81.50;;;;;;4992098;28;20026;-68
2022/07/24 06:16:15;;;;;;;1.95;1.60;;;19.10;81.50;;;;;;4991668;28;20029;-68
2022/07/24 06:18:41;;;;;;;2.22;1.25;;;19.10;81.10;;;;;;4991306;28;20022;-68
2022/07/24 06:21:07;;;;;;;1.52;1.23;;;19.20;80.80;;;;;;4989185;28;20022;-68
2022/07/24 06:23:32;;;;;;;3.35;1.50;;;19.20;80.70;;;;;;4990947;28;20030;-68
2022/07/24 06:25:59;;;;;;;2.88;1.38;;;19.20;81.00;;;;;;4990746;28;20030;-69
2022/07/24 06:28:26;;;;;;;3.75;1.60;;;19.20;81.00;;;;;;4991113;28;20046;-69
2022/07/24 06:30:51;;;;;;;3.13;1.67;;;19.30;80.80;;;;;;4990331;28;20041;-69
2022/07/24 06:33:17;;;;;;;3.45;1.67;;;19.30;80.90;;;;;;4991637;28;20129;-69
2022/07/24 06:35:44;;;;;;;3.67;1.38;;;19.20;81.00;;;;;;4989622;28;20026;-69
2022/07/24 06:38:09;;;;;;;2.92;1.50;;;19.30;81.00;;;;;;4992045;28;20422;-69
2022/07/24 06:40:36;;;;;;;2.65;1.35;;;19.30;81.10;;;;;;4973189;28;20109;-68
2022/07/24 06:43:03;;;;;;;3.00;1.50;;;19.40;80.60;;;;;;4991840;28;20030;-68
2022/07/24 06:45:32;;;;;;;2.65;1.42;;;19.40;80.80;;;;;;4992145;28;20030;-69
2022/07/24 06:48:00;;;;;;;2.75;1.42;;;19.50;80.70;;;;;;4991387;28;20125;-69
2022/07/24 06:50:26;;;;;;;1.98;1.30;;;19.60;80.50;;;;;;4990683;28;20121;-69
2022/07/24 06:52:52;;;;;;;1.92;1.40;;;19.60;80.50;;;;;;4990860;28;20103;-69
2022/07/24 06:55:17;;;;;;;2.70;1.42;;;19.60;80.30;;;;;;4993611;28;20498;-68
2022/07/24 06:57:43;;;;;;;2.10;1.40;;;19.70;80.50;;;;;;4993458;28;20469;-69
2022/07/24 07:00:09;;;;;;;3.00;1.88;;;19.80;80.20;;;;;;4995096;28;20501;-69
2022/07/24 07:02:36;;;;;;;2.45;1.42;;;19.80;79.90;;;;;;4992987;28;20473;-69
2022/07/24 07:05:02;;;;;;;3.45;1.40;;;19.80;79.80;;;;;;4995522;28;20026;-68
2022/07/24 07:07:29;;;;;;;1.85;1.25;;;19.90;79.70;;;;;;4990654;28;20030;-70
2022/07/24 07:09:54;;;;;;;1.85;1.40;;;20.00;79.40;;;;;;4992766;28;20493;-71
2022/07/24 07:12:20;;;;;;;1.55;1.40;;;20.00;79.30;;;;;;4988924;28;20110;-72
2022/07/24 07:14:49;;;;;;;3.75;1.40;;;20.10;79.10;;;;;;4991030;28;20089;-72
2022/07/24 07:17:15;;;;;;;2.28;1.30;;;20.10;78.60;;;;;;4975323;28;20062;-72
2022/07/24 07:19:42;;;;;;;2.80;1.33;;;20.10;78.70;;;;;;4992640;28;20381;-70
2022/07/24 07:22:08;;;;;;;2.90;1.40;;;20.10;78.70;;;;;;4975264;28;20114;-69
2022/07/24 07:24:35;;;;;;;1.70;1.30;;;20.10;78.70;;;;;;4982588;28;20523;-69
2022/07/24 07:27:00;;;;;;;2.25;1.33;;;20.20;78.20;;;;;;4991539;28;20533;-70
2022/07/24 07:29:27;;;;;;;3.95;1.40;;;20.30;78.30;;;;;;4993683;28;20034;-70
2022/07/24 07:31:53;;;;;;;3.40;1.60;;;20.30;77.80;;;;;;4973244;28;20069;-71
2022/07/24 07:34:18;;;;;;;2.38;1.38;;;20.40;77.70;;;;;;4982314;28;20074;-70
2022/07/24 07:36:51;;;;;;;2.45;1.30;;;20.40;77.00;;;;;;4990352;28;20038;-70
2022/07/24 07:39:17;;;;;;;2.42;1.38;;;20.50;76.60;;;;;;4985394;28;20037;-70
2022/07/24 07:41:42;;;;;;;2.65;1.38;;;20.50;76.30;;;;;;4987677;28;20456;-70
2022/07/24 07:44:08;;;;;;;2.58;1.50;;;20.50;76.60;;;;;;4991399;28;20523;-71
2022/07/24 07:46:33;;;;;;;1.80;1.27;;;20.60;76.40;;;;;;4990773;28;20077;-71
2022/07/24 07:48:59;;;;;;;1.67;1.30;;;20.60;76.40;;;;;;4986854;28;20433;-70
2022/07/24 07:51:26;;;;;;;2.50;1.50;;;20.70;76.00;;;;;;4985321;28;20030;-69
2022/07/24 07:53:51;;;;;;;2.13;1.30;;;20.80;76.10;;;;;;4992412;28;20117;-70
2022/07/24 07:56:17;;;;;;;2.40;1.10;;;20.80;76.00;;;;;;4988444;28;20546;-70
2022/07/24 07:58:42;;;;;;;5.35;2.22;;;20.90;75.80;;;;;;4992849;28;20398;-70
2022/07/24 08:01:09;;;;;;;2.92;1.30;;;20.90;75.50;;;;;;4991312;28;20030;-69
2022/07/24 08:03:35;;;;;;;1.88;1.30;;;21.00;75.30;;;;;;4980055;28;20030;-70
2022/07/24 08:06:01;;;;;;;3.63;1.30;;;21.10;75.00;;;;;;4991137;28;20085;-69
2022/07/24 08:08:27;;;;;;;2.72;1.50;;;21.10;75.00;;;;;;4988927;28;20125;-70
2022/07/24 08:10:53;;;;;;;2.33;1.30;;;21.10;74.70;;;;;;4981267;28;20138;-69
2022/07/24 08:13:19;;;;;;;1.98;1.13;;;21.20;74.60;;;;;;4992469;28;20033;-70
2022/07/24 08:15:45;;;;;;;2.05;1.27;;;21.20;73.50;;;;;;4974608;28;20162;-69
2022/07/24 08:18:11;;;;;;;1.98;1.20;;;21.30;73.60;;;;;;4993081;28;20030;-69
2022/07/24 08:20:37;;;;;;;3.28;1.23;;;21.30;73.00;;;;;;4990548;28;20026;-69
2022/07/24 08:23:02;;;;;;;2.10;1.33;;;21.40;72.60;;;;;;4989279;28;20502;-69
2022/07/24 08:25:28;;;;;;;5.03;1.27;;;21.50;72.40;;;;;;4990846;28;20463;-69
2022/07/24 08:27:54;;;;;;;2.03;1.30;;;21.50;72.80;;;;;;4985858;28;20030;-69
2022/07/24 08:30:19;;;;;;;3.67;1.25;;;21.60;72.60;;;;;;4992911;28;20109;-69
2022/07/24 08:32:45;;;;;;;1.52;1.17;;;21.60;71.30;;;;;;4990052;28;20026;-69
2022/07/24 08:35:11;;;;;;;1.95;1.17;;;21.70;71.10;;;;;;4991512;28;20145;-69
2022/07/24 08:37:38;;;;;;;2.28;1.23;;;21.70;70.90;;;;;;4991802;28;20023;-69
2022/07/24 08:40:05;;;;;;;2.35;1.10;;;21.80;70.60;;;;;;4974790;28;20036;-69
2022/07/24 08:42:35;;;;;;;2.70;1.30;;;21.90;70.30;;;;;;4991434;28;20042;-69
2022/07/24 08:45:01;;;;;;;2.72;1.17;;;21.90;69.80;;;;;;4975803;28;20061;-69
2022/07/24 08:47:29;;;;;;;1.70;1.10;;;22.00;69.30;;;;;;4989498;28;20492;-71
2022/07/24 08:49:57;;;;;;;2.83;1.20;;;22.00;68.70;;;;;;4991599;28;20096;-70
2022/07/24 08:52:24;;;;;;;2.22;1.27;;;22.10;67.40;;;;;;4991398;28;20427;-69
2022/07/24 08:54:50;;;;;;;3.08;1.63;;;22.10;68.90;;;;;;4991536;28;20084;-70
2022/07/24 08:57:19;;;;;;;1.92;1.35;;;22.20;68.30;;;;;;4990982;28;20038;-69
2022/07/24 08:59:45;;;;;;;1.40;1.17;;;22.30;68.70;;;;;;4991325;28;20035;-70
2022/07/24 09:02:11;;;;;;;2.08;1.30;;;22.40;68.30;;;;;;4991316;28;20473;-70
2022/07/24 09:04:39;;;;;;;5.25;1.38;;;22.40;67.70;;;;;;4992138;28;20482;-69
2022/07/24 09:07:14;;;;;;;4.93;1.50;;;22.50;67.80;;;;;;4990329;28;20075;-69
2022/07/24 09:09:41;;;;;;;2.60;1.27;;;22.50;67.40;;;;;;4992504;28;20390;-70
2022/07/24 09:12:08;;;;;;;7.40;1.77;;;22.60;67.50;;;;;;4991171;28;20041;-68
2022/07/24 09:14:38;;;;;;;2.05;1.30;;;22.70;67.50;;;;;;4991054;28;20030;-70
2022/07/24 09:17:16;;;;;;;3.72;1.30;;;22.70;67.50;;;;;;4976658;28;20092;-69
2022/07/24 09:20:11;;;;;;;3.35;1.33;;;22.80;66.30;;;;;;4989394;28;20493;-68
2022/07/24 09:22:40;;;;;;;;;;;22.80;67.00;;;;;;4968005;28;20034;-69
2022/07/24 09:25:23;;;;;;;2.50;1.40;;;22.90;67.60;;;;;;4992475;28;19964;-68
2022/07/24 09:27:51;;;;;;;4.57;1.90;;;22.90;66.60;;;;;;4996013;28;20173;-68
2022/07/24 09:30:37;;;;;;;1.60;1.30;;;23.00;66.90;;;;;;4990805;28;20034;-69
2022/07/24 09:33:14;;;;;;;2.97;1.40;;;23.10;65.80;;;;;;4990664;28;20035;-69
2022/07/24 09:35:51;;;;;;;2.60;1.52;;;23.20;65.50;;;;;;4988268;28;20035;-68
2022/07/24 09:38:21;;;;;;;3.67;1.80;;;23.30;65.60;;;;;;4982750;28;20061;-68
2022/07/24 09:40:51;;;;;;;3.00;1.23;;;23.30;64.30;;;;;;4987617;28;20025;-69
2022/07/24 09:43:24;;;;;;;3.97;1.38;;;23.40;63.90;;;;;;4975205;28;20030;-68
2022/07/24 09:45:55;;;;;;;2.13;1.40;;;23.50;64.30;;;;;;4989505;28;20026;-68
2022/07/24 09:48:23;;;;;;;4.97;1.52;;;23.60;64.70;;;;;;4982391;28;20774;-69
2022/07/24 09:50:50;;;;;;;1.92;1.40;;;23.70;64.80;;;;;;4990387;28;20085;-69
2022/07/24 09:53:21;;;;;;;2.30;1.50;;;23.80;64.20;;;;;;4992082;28;20031;-68
2022/07/24 09:56:00;;;;;;;3.05;1.85;;;23.90;64.00;;;;;;4974045;28;20408;-69
2022/07/24 09:58:27;;;;;;;1.55;1.23;;;23.90;63.80;;;;;;4992323;28;20085;-68
2022/07/24 10:00:55;;;;;;;2.13;1.25;;;24.00;63.50;;;;;;4993253;28;20137;-68
2022/07/24 10:03:25;;;;;;;1.55;1.30;;;24.00;62.50;;;;;;4974246;28;20076;-70
2022/07/24 10:06:12;;;;;;;4.13;1.70;;;24.10;62.40;;;;;;5070400;27;20433;-71
2022/07/24 10:08:41;;;;;;;2.75;1.80;;;24.20;63.80;;;;;;5068989;28;20033;-70
2022/07/24 10:11:07;;;;;;;3.90;1.58;;;24.20;64.00;;;;;;5073017;28;20020;-69
2022/07/24 10:13:34;;;;;;;2.65;1.40;;;24.30;63.60;;;;;;5068169;28;20491;-71
2022/07/24 10:16:14;;;;;;;3.50;1.52;;;24.40;64.20;;;;;;5069111;28;20082;-69
2022/07/24 10:18:47;;;;;;;3.50;1.65;;;24.50;63.70;;;;;;5068236;28;20033;-69
2022/07/24 10:21:42;;;;;;;2.33;1.40;;;24.50;63.80;;;;;;5068632;28;20112;-69
2022/07/24 10:24:23;;;;;;;3.42;1.40;;;24.60;64.70;;;;;;5048228;28;20063;-68
2022/07/24 10:26:50;;;;;;;3.22;2.33;;;24.60;64.60;;;;;;5062628;28;20036;-68
2022/07/24 10:29:21;;;;;;;5.25;2.78;;;24.70;64.60;;;;;;5050750;28;20037;-69
2022/07/24 10:31:54;;;;;;;97.35;42.67;;;24.80;63.60;;;;;;5053060;28;20099;-68
2022/07/24 10:34:24;;;;;;;13.25;6.38;;;24.80;63.40;;;;;;5068714;28;20121;-68
2022/07/24 10:37:21;;;;;;;4.05;2.20;;;24.90;62.40;;;;;;5068290;28;20029;-64
2022/07/24 10:39:47;;;;;;;2.33;1.52;;;24.90;62.40;;;;;;5065132;28;20068;-64
2022/07/24 10:42:13;;;;;;;1.55;1.30;;;24.90;62.50;;;;;;5066775;28;20491;-64
2022/07/24 10:44:39;;;;;;;18.90;9.85;;;25.00;62.10;;;;;;5066955;28;20032;-64
2022/07/24 10:47:13;;;;;;;6.80;3.33;;;25.00;62.60;;;;;;5066058;28;20439;-64
2022/07/24 10:49:42;;;;;;;5.93;2.42;;;25.00;61.50;;;;;;5070629;28;20047;-64
2022/07/24 10:52:22;;;;;;;34.50;17.00;;;25.00;61.40;;;;;;5065583;28;20035;-65
2022/07/24 10:55:09;;;;;;;39.67;17.48;;;25.00;62.30;;;;;;5065373;28;20179;-65
2022/07/24 10:57:57;;;;;;;14.50;5.72;;;25.10;62.70;;;;;;5067058;28;20028;-65
2022/07/24 11:00:26;;;;;;;5.03;2.40;;;25.20;62.50;;;;;;5054226;28;20025;-65
2022/07/24 11:03:03;;;;;;;7.40;4.30;;;25.30;61.90;;;;;;5045698;28;20025;-65
2022/07/24 11:05:38;;;;;;;6.65;2.55;;;25.30;62.80;;;;;;5047284;28;20175;-65
2022/07/24 11:08:16;;;;;;;2.85;2.22;;;25.50;63.00;;;;;;5046128;28;20036;-65
2022/07/24 11:10:50;;;;;;;2.72;2.00;;;25.50;62.00;;;;;;5047243;28;20385;-65
2022/07/24 11:13:33;;;;;;;4.57;2.03;;;25.50;62.20;;;;;;5054584;28;20079;-65
2022/07/24 11:16:11;;;;;;;3.55;2.30;;;25.60;61.90;;;;;;5036994;28;20448;-64
2022/07/24 11:18:37;;;;;;;3.20;1.98;;;25.70;62.20;;;;;;5032855;28;20674;-64
2022/07/24 11:21:03;;;;;;;2.70;1.63;;;25.80;62.10;;;;;;5028757;28;20427;-64
2022/07/24 11:23:29;;;;;;;2.58;1.98;;;25.70;60.50;;;;;;5035080;28;20025;-64
2022/07/24 11:26:31;;;;;;;2.15;1.70;;;25.80;60.80;;;;;;5032641;28;20034;-65
2022/07/24 11:29:14;;;;;;;2.65;1.80;;;25.80;60.60;;;;;;5028028;28;20487;-64
2022/07/24 11:31:42;;;;;;;4.88;1.80;;;25.90;60.10;;;;;;5032907;28;20380;-65
2022/07/24 11:34:08;;;;;;;3.33;1.50;;;25.90;60.10;;;;;;5032596;28;20440;-65
2022/07/24 11:36:35;;;;;;;2.35;1.58;;;25.90;59.80;;;;;;5030263;28;20033;-65
2022/07/24 11:39:03;;;;;;;2.95;1.80;;;26.00;59.60;;;;;;5046669;28;20033;-65
2022/07/24 11:41:43;;;;;;;4.20;1.60;;;26.00;59.20;;;;;;5033352;28;20017;-65
2022/07/24 11:44:08;;;;;;;3.67;1.50;;;26.00;58.60;;;;;;5032351;28;20029;-65
2022/07/24 11:46:35;;;;;;;4.65;1.70;;;26.10;59.00;;;;;;5029541;28;20503;-65
2022/07/24 11:49:06;;;;;;;2.20;1.50;;;26.10;59.00;;;;;;5033436;28;20487;-65
2022/07/24 11:51:39;;;;;;;2.80;1.67;;;26.10;58.30;;;;;;5033323;28;20030;-65
2022/07/24 11:54:05;;;;;;;2.50;1.60;;;26.10;58.30;;;;;;5033810;28;20055;-65
2022/07/24 11:56:31;;;;;;;3.15;1.30;;;26.10;58.30;;;;;;5033185;28;20086;-64
2022/07/24 11:58:57;;;;;;;2.47;1.52;;;26.20;58.90;;;;;;5032339;28;20037;-65
2022/07/24 12:01:23;;;;;;;2.55;1.83;;;26.20;58.60;;;;;;5031769;28;20041;-65
2022/07/24 12:03:53;;;;;;;2.28;1.70;;;26.20;58.10;;;;;;5033358;28;20029;-65
2022/07/24 12:06:20;;;;;;;3.50;1.67;;;26.30;58.40;;;;;;5033235;28;20385;-65
2022/07/24 12:08:46;;;;;;;2.25;1.50;;;26.40;58.10;;;;;;5022944;28;20110;-65
2022/07/24 12:11:19;;;;;;;5.53;1.90;;;26.40;57.60;;;;;;5033361;28;20060;-65
2022/07/24 12:13:45;;;;;;;2.47;1.50;;;26.50;57.20;;;;;;5033234;28;20104;-65
2022/07/24 12:16:11;;;;;;;3.53;1.40;;;26.50;56.70;;;;;;5029942;28;20159;-65
2022/07/24 12:18:36;;;;;;;2.50;1.73;;;26.50;56.80;;;;;;5031756;28;20040;-65
2022/07/24 12:21:03;;;;;;;2.25;1.60;;;26.60;57.30;;;;;;5032108;28;20025;-65
2022/07/24 12:23:29;;;;;;;1.98;1.50;;;26.60;57.50;;;;;;5031910;28;20033;-65
2022/07/24 12:25:55;;;;;;;2.10;1.75;;;26.70;57.60;;;;;;5027004;28;20037;-65
2022/07/24 12:28:20;;;;;;;3.80;1.75;;;26.70;56.60;;;;;;5028271;28;20108;-64
2022/07/24 12:30:49;;;;;;;2.28;1.48;;;26.80;56.70;;;;;;5027420;28;20032;-65
2022/07/24 12:33:15;;;;;;;2.60;1.60;;;26.80;56.70;;;;;;5030763;28;20029;-65
2022/07/24 12:35:59;;;;;;;2.10;1.50;;;26.90;56.40;;;;;;5032561;28;20037;-65
2022/07/24 12:38:29;;;;;;;3.17;1.40;;;26.90;55.90;;;;;;5029481;28;20029;-65
2022/07/24 12:41:06;;;;;;;2.55;1.83;;;27.00;55.50;;;;;;5031400;28;20052;-64
2022/07/24 12:43:33;;;;;;;3.25;1.60;;;27.10;55.20;;;;;;5027953;28;20520;-65
2022/07/24 12:46:09;;;;;;;3.05;1.45;;;27.20;54.80;;;;;;5031463;28;20088;-64
2022/07/24 12:48:34;;;;;;;2.45;1.63;;;27.20;54.70;;;;;;5030031;28;20385;-64
2022/07/24 12:51:08;;;;;;;3.63;1.85;;;27.30;55.40;;;;;;5030354;28;20033;-64